sensor_id;sensor_type;location;lat;lon;timestamp;P1;durP1;ratioP1;P2;durP2;ratioP2
13605;SDS011;6874;52.084;5.090;2023-04-15T00:01:57;34.80;;;33.70;;
13605;SDS011;6874;52.084;5.090;2023-04-15T00:04:23;33.47;;;32.40;;
13605;SDS011;6874;52.084;5.090;2023-04-15T00:06:50;31.63;;;30.63;;
13605;SDS011;6874;52.084;5.090;2023-04-15T00:09:19;33.20;;;32.13;;
13605;SDS011;6874;52.084;5.090;2023-04-15T00:11:45;32.37;;;31.33;;
13605;SDS011;6874;52.084;5.090;2023-04-15T00:14:11;32.77;;;31.73;;
13605;SDS011;6874;52.084;5.090;2023-04-15T00:16:37;30.27;;;29.30;;
13605;SDS011;6874;52.084;5.090;2023-04-15T00:19:03;29.67;;;28.73;;
13605;SDS011;6874;52.084;5.090;2023-04-15T00:21:28;31.40;;;30.40;;
13605;SDS011;6874;52.084;5.090;2023-04-15T00:23:54;30.07;;;29.13;;
13605;SDS011;6874;52.084;5.090;2023-04-15T00:26:20;32.83;;;31.77;;
13605;SDS011;6874;52.084;5.090;2023-04-15T00:28:46;28.97;;;28.07;;
13605;SDS011;6874;52.084;5.090;2023-04-15T00:31:12;31.20;;;30.20;;
13605;SDS011;6874;52.084;5.090;2023-04-15T00:33:38;30.00;;;29.07;;
13605;SDS011;6874;52.084;5.090;2023-04-15T00:36:05;28.27;;;27.37;;
13605;SDS011;6874;52.084;5.090;2023-04-15T00:38:31;28.60;;;27.70;;
13605;SDS011;6874;52.084;5.090;2023-04-15T00:40:56;28.33;;;27.43;;
13605;SDS011;6874;52.084;5.090;2023-04-15T00:43:22;28.17;;;27.27;;
13605;SDS011;6874;52.084;5.090;2023-04-15T00:45:48;30.40;;;29.43;;
13605;SDS011;6874;52.084;5.090;2023-04-15T00:48:15;26.83;;;26.00;;
13605;SDS011;6874;52.084;5.090;2023-04-15T00:50:41;27.93;;;27.03;;
13605;SDS011;6874;52.084;5.090;2023-04-15T00:53:07;29.10;;;28.17;;
13605;SDS011;6874;52.084;5.090;2023-04-15T00:55:32;28.07;;;27.20;;
13605;SDS011;6874;52.084;5.090;2023-04-15T00:57:58;27.23;;;26.37;;
13605;SDS011;6874;52.084;5.090;2023-04-15T01:00:23;27.83;;;26.97;;
13605;SDS011;6874;52.084;5.090;2023-04-15T01:02:49;27.67;;;26.77;;
13605;SDS011;6874;52.084;5.090;2023-04-15T01:05:15;26.23;;;25.40;;
13605;SDS011;6874;52.084;5.090;2023-04-15T01:07:42;23.90;;;23.17;;
13605;SDS011;6874;52.084;5.090;2023-04-15T01:10:08;25.90;;;25.10;;
13605;SDS011;6874;52.084;5.090;2023-04-15T01:12:34;26.83;;;25.97;;
13605;SDS011;6874;52.084;5.090;2023-04-15T01:15:01;26.27;;;25.43;;
13605;SDS011;6874;52.084;5.090;2023-04-15T01:17:28;25.10;;;24.30;;
13605;SDS011;6874;52.084;5.090;2023-04-15T01:19:54;26.47;;;25.63;;
13605;SDS011;6874;52.084;5.090;2023-04-15T01:22:22;23.53;;;22.77;;
13605;SDS011;6874;52.084;5.090;2023-04-15T01:24:55;26.10;;;25.30;;
13605;SDS011;6874;52.084;5.090;2023-04-15T01:27:32;22.13;;;21.43;;
13605;SDS011;6874;52.084;5.090;2023-04-15T01:29:59;23.93;;;23.17;;
13605;SDS011;6874;52.084;5.090;2023-04-15T01:32:25;24.73;;;23.93;;
13605;SDS011;6874;52.084;5.090;2023-04-15T01:34:51;24.97;;;24.17;;
13605;SDS011;6874;52.084;5.090;2023-04-15T01:37:16;24.00;;;23.23;;
13605;SDS011;6874;52.084;5.090;2023-04-15T01:39:42;24.70;;;23.93;;
13605;SDS011;6874;52.084;5.090;2023-04-15T01:42:08;25.30;;;24.50;;
13605;SDS011;6874;52.084;5.090;2023-04-15T01:44:34;24.53;;;23.77;;
13605;SDS011;6874;52.084;5.090;2023-04-15T01:46:59;24.50;;;23.73;;
13605;SDS011;6874;52.084;5.090;2023-04-15T01:49:25;24.67;;;23.90;;
13605;SDS011;6874;52.084;5.090;2023-04-15T01:51:51;23.33;;;22.60;;
13605;SDS011;6874;52.084;5.090;2023-04-15T01:54:18;23.53;;;22.80;;
13605;SDS011;6874;52.084;5.090;2023-04-15T01:56:43;24.23;;;23.47;;
13605;SDS011;6874;52.084;5.090;2023-04-15T01:59:09;23.53;;;22.77;;
13605;SDS011;6874;52.084;5.090;2023-04-15T02:01:34;23.63;;;22.87;;
13605;SDS011;6874;52.084;5.090;2023-04-15T02:04:00;21.90;;;21.23;;
13605;SDS011;6874;52.084;5.090;2023-04-15T02:06:25;21.67;;;21.00;;
13605;SDS011;6874;52.084;5.090;2023-04-15T02:08:52;22.83;;;22.13;;
13605;SDS011;6874;52.084;5.090;2023-04-15T02:11:17;22.53;;;21.80;;
13605;SDS011;6874;52.084;5.090;2023-04-15T02:13:43;22.90;;;22.17;;
13605;SDS011;6874;52.084;5.090;2023-04-15T02:16:18;22.83;;;22.10;;
13605;SDS011;6874;52.084;5.090;2023-04-15T02:18:47;22.73;;;22.00;;
13605;SDS011;6874;52.084;5.090;2023-04-15T02:21:12;21.47;;;20.80;;
13605;SDS011;6874;52.084;5.090;2023-04-15T02:23:38;23.83;;;23.07;;
13605;SDS011;6874;52.084;5.090;2023-04-15T02:26:04;23.73;;;23.00;;
13605;SDS011;6874;52.084;5.090;2023-04-15T02:28:30;22.67;;;21.93;;
13605;SDS011;6874;52.084;5.090;2023-04-15T02:30:56;22.53;;;21.80;;
13605;SDS011;6874;52.084;5.090;2023-04-15T02:33:23;20.33;;;19.70;;
13605;SDS011;6874;52.084;5.090;2023-04-15T02:35:49;21.70;;;21.00;;
13605;SDS011;6874;52.084;5.090;2023-04-15T02:38:14;21.13;;;20.47;;
13605;SDS011;6874;52.084;5.090;2023-04-15T02:40:41;21.60;;;20.90;;
13605;SDS011;6874;52.084;5.090;2023-04-15T02:43:07;20.40;;;19.77;;
13605;SDS011;6874;52.084;5.090;2023-04-15T02:45:32;20.83;;;20.20;;
13605;SDS011;6874;52.084;5.090;2023-04-15T02:47:58;20.77;;;20.13;;
13605;SDS011;6874;52.084;5.090;2023-04-15T02:50:25;19.83;;;19.23;;
13605;SDS011;6874;52.084;5.090;2023-04-15T02:52:51;19.83;;;19.23;;
13605;SDS011;6874;52.084;5.090;2023-04-15T02:55:17;20.47;;;19.83;;
13605;SDS011;6874;52.084;5.090;2023-04-15T02:57:42;20.37;;;19.73;;
13605;SDS011;6874;52.084;5.090;2023-04-15T03:00:08;23.00;;;22.27;;
13605;SDS011;6874;52.084;5.090;2023-04-15T03:02:36;20.27;;;19.63;;
13605;SDS011;6874;52.084;5.090;2023-04-15T03:05:02;21.00;;;20.33;;
13605;SDS011;6874;52.084;5.090;2023-04-15T03:07:29;21.03;;;20.37;;
13605;SDS011;6874;52.084;5.090;2023-04-15T03:09:55;21.97;;;21.27;;
13605;SDS011;6874;52.084;5.090;2023-04-15T03:12:21;19.43;;;18.83;;
13605;SDS011;6874;52.084;5.090;2023-04-15T03:14:47;21.80;;;21.13;;
13605;SDS011;6874;52.084;5.090;2023-04-15T03:17:12;21.87;;;21.20;;
13605;SDS011;6874;52.084;5.090;2023-04-15T03:19:38;20.60;;;19.97;;
13605;SDS011;6874;52.084;5.090;2023-04-15T03:22:04;20.73;;;20.07;;
13605;SDS011;6874;52.084;5.090;2023-04-15T03:24:29;21.13;;;20.47;;
13605;SDS011;6874;52.084;5.090;2023-04-15T03:26:55;21.20;;;20.53;;
13605;SDS011;6874;52.084;5.090;2023-04-15T03:29:21;19.20;;;18.60;;
13605;SDS011;6874;52.084;5.090;2023-04-15T03:31:47;21.67;;;21.00;;
13605;SDS011;6874;52.084;5.090;2023-04-15T03:34:13;19.93;;;19.30;;
13605;SDS011;6874;52.084;5.090;2023-04-15T03:36:38;21.07;;;20.40;;
13605;SDS011;6874;52.084;5.090;2023-04-15T03:39:04;19.50;;;18.90;;
13605;SDS011;6874;52.084;5.090;2023-04-15T03:41:30;20.23;;;19.60;;
13605;SDS011;6874;52.084;5.090;2023-04-15T03:43:56;21.03;;;20.37;;
13605;SDS011;6874;52.084;5.090;2023-04-15T03:46:22;18.57;;;18.00;;
13605;SDS011;6874;52.084;5.090;2023-04-15T03:48:48;19.87;;;19.23;;
13605;SDS011;6874;52.084;5.090;2023-04-15T03:51:13;18.87;;;18.30;;
13605;SDS011;6874;52.084;5.090;2023-04-15T03:53:39;19.00;;;18.40;;
13605;SDS011;6874;52.084;5.090;2023-04-15T03:56:05;18.40;;;17.83;;
13605;SDS011;6874;52.084;5.090;2023-04-15T03:58:30;19.40;;;18.80;;
13605;SDS011;6874;52.084;5.090;2023-04-15T04:00:56;18.60;;;18.03;;
13605;SDS011;6874;52.084;5.090;2023-04-15T04:03:21;17.03;;;16.50;;
13605;SDS011;6874;52.084;5.090;2023-04-15T04:05:47;17.10;;;16.57;;
13605;SDS011;6874;52.084;5.090;2023-04-15T04:08:13;16.30;;;15.80;;
13605;SDS011;6874;52.084;5.090;2023-04-15T04:10:40;17.37;;;16.83;;
13605;SDS011;6874;52.084;5.090;2023-04-15T04:13:06;16.23;;;15.73;;
13605;SDS011;6874;52.084;5.090;2023-04-15T04:15:31;16.33;;;15.83;;
13605;SDS011;6874;52.084;5.090;2023-04-15T04:17:57;15.40;;;14.93;;
13605;SDS011;6874;52.084;5.090;2023-04-15T04:20:22;15.73;;;15.27;;
13605;SDS011;6874;52.084;5.090;2023-04-15T04:22:48;14.47;;;14.03;;
13605;SDS011;6874;52.084;5.090;2023-04-15T04:25:14;15.60;;;15.13;;
13605;SDS011;6874;52.084;5.090;2023-04-15T04:27:40;14.13;;;13.70;;
13605;SDS011;6874;52.084;5.090;2023-04-15T04:30:06;13.53;;;13.13;;
13605;SDS011;6874;52.084;5.090;2023-04-15T04:32:32;12.93;;;12.53;;
13605;SDS011;6874;52.084;5.090;2023-04-15T04:34:57;13.73;;;13.33;;
13605;SDS011;6874;52.084;5.090;2023-04-15T04:37:23;12.80;;;12.40;;
13605;SDS011;6874;52.084;5.090;2023-04-15T04:39:49;13.30;;;12.90;;
13605;SDS011;6874;52.084;5.090;2023-04-15T04:42:14;12.93;;;12.53;;
13605;SDS011;6874;52.084;5.090;2023-04-15T04:44:40;12.33;;;11.97;;
13605;SDS011;6874;52.084;5.090;2023-04-15T04:47:06;12.73;;;12.33;;
13605;SDS011;6874;52.084;5.090;2023-04-15T04:49:32;11.60;;;11.27;;
13605;SDS011;6874;52.084;5.090;2023-04-15T04:51:58;10.87;;;10.57;;
13605;SDS011;6874;52.084;5.090;2023-04-15T04:54:23;10.10;;;9.80;;
13605;SDS011;6874;52.084;5.090;2023-04-15T04:56:49;10.60;;;10.30;;
13605;SDS011;6874;52.084;5.090;2023-04-15T04:59:15;11.20;;;10.87;;
13605;SDS011;6874;52.084;5.090;2023-04-15T05:01:41;9.87;;;9.57;;
13605;SDS011;6874;52.084;5.090;2023-04-15T05:04:06;10.30;;;10.00;;
13605;SDS011;6874;52.084;5.090;2023-04-15T05:06:32;10.03;;;9.73;;
13605;SDS011;6874;52.084;5.090;2023-04-15T05:08:59;9.93;;;9.63;;
13605;SDS011;6874;52.084;5.090;2023-04-15T05:11:25;8.97;;;8.70;;
13605;SDS011;6874;52.084;5.090;2023-04-15T05:13:50;9.67;;;9.37;;
13605;SDS011;6874;52.084;5.090;2023-04-15T05:16:16;9.77;;;9.47;;
13605;SDS011;6874;52.084;5.090;2023-04-15T05:18:42;9.60;;;9.30;;
13605;SDS011;6874;52.084;5.090;2023-04-15T05:21:07;8.97;;;8.70;;
13605;SDS011;6874;52.084;5.090;2023-04-15T05:23:33;9.10;;;8.83;;
13605;SDS011;6874;52.084;5.090;2023-04-15T05:25:59;8.57;;;8.33;;
13605;SDS011;6874;52.084;5.090;2023-04-15T05:28:24;8.37;;;8.17;;
13605;SDS011;6874;52.084;5.090;2023-04-15T05:30:50;9.07;;;8.77;;
13605;SDS011;6874;52.084;5.090;2023-04-15T05:33:15;8.43;;;8.23;;
13605;SDS011;6874;52.084;5.090;2023-04-15T05:35:41;8.40;;;8.20;;
13605;SDS011;6874;52.084;5.090;2023-04-15T05:38:07;8.60;;;8.37;;
13605;SDS011;6874;52.084;5.090;2023-04-15T05:40:32;7.80;;;7.60;;
13605;SDS011;6874;52.084;5.090;2023-04-15T05:42:58;7.40;;;7.20;;
13605;SDS011;6874;52.084;5.090;2023-04-15T05:45:23;8.70;;;8.43;;
13605;SDS011;6874;52.084;5.090;2023-04-15T05:47:49;7.33;;;7.13;;
13605;SDS011;6874;52.084;5.090;2023-04-15T05:50:14;7.50;;;7.30;;
13605;SDS011;6874;52.084;5.090;2023-04-15T05:52:40;6.90;;;6.70;;
13605;SDS011;6874;52.084;5.090;2023-04-15T05:55:06;6.47;;;6.27;;
13605;SDS011;6874;52.084;5.090;2023-04-15T05:57:32;6.97;;;6.77;;
13605;SDS011;6874;52.084;5.090;2023-04-15T05:59:57;6.20;;;6.00;;
13605;SDS011;6874;52.084;5.090;2023-04-15T06:02:23;5.63;;;5.50;;
13605;SDS011;6874;52.084;5.090;2023-04-15T06:04:48;5.10;;;5.00;;
13605;SDS011;6874;52.084;5.090;2023-04-15T06:07:14;5.90;;;5.70;;
13605;SDS011;6874;52.084;5.090;2023-04-15T06:09:40;5.67;;;5.50;;
13605;SDS011;6874;52.084;5.090;2023-04-15T06:12:05;5.60;;;5.47;;
13605;SDS011;6874;52.084;5.090;2023-04-15T06:14:36;5.90;;;5.70;;
13605;SDS011;6874;52.084;5.090;2023-04-15T06:17:04;6.10;;;5.90;;
13605;SDS011;6874;52.084;5.090;2023-04-15T06:19:30;6.63;;;6.43;;
13605;SDS011;6874;52.084;5.090;2023-04-15T06:21:57;6.43;;;6.23;;
13605;SDS011;6874;52.084;5.090;2023-04-15T06:24:22;7.00;;;6.80;;
13605;SDS011;6874;52.084;5.090;2023-04-15T06:26:48;7.80;;;7.60;;
13605;SDS011;6874;52.084;5.090;2023-04-15T06:29:14;7.20;;;7.00;;
13605;SDS011;6874;52.084;5.090;2023-04-15T06:31:40;8.30;;;8.10;;
13605;SDS011;6874;52.084;5.090;2023-04-15T06:34:05;7.90;;;7.70;;
13605;SDS011;6874;52.084;5.090;2023-04-15T06:36:31;8.00;;;7.80;;
13605;SDS011;6874;52.084;5.090;2023-04-15T06:38:57;8.40;;;8.20;;
13605;SDS011;6874;52.084;5.090;2023-04-15T06:41:23;8.33;;;8.13;;
13605;SDS011;6874;52.084;5.090;2023-04-15T06:43:48;6.93;;;6.73;;
13605;SDS011;6874;52.084;5.090;2023-04-15T06:46:14;6.23;;;6.03;;
13605;SDS011;6874;52.084;5.090;2023-04-15T06:48:40;6.33;;;6.13;;
13605;SDS011;6874;52.084;5.090;2023-04-15T06:51:06;6.30;;;6.10;;
13605;SDS011;6874;52.084;5.090;2023-04-15T06:53:32;6.50;;;6.30;;
13605;SDS011;6874;52.084;5.090;2023-04-15T06:55:57;6.17;;;5.97;;
13605;SDS011;6874;52.084;5.090;2023-04-15T06:58:23;5.73;;;5.57;;
13605;SDS011;6874;52.084;5.090;2023-04-15T07:00:49;5.53;;;5.43;;
13605;SDS011;6874;52.084;5.090;2023-04-15T07:03:15;5.60;;;5.50;;
13605;SDS011;6874;52.084;5.090;2023-04-15T07:05:41;5.27;;;5.17;;
13605;SDS011;6874;52.084;5.090;2023-04-15T07:08:07;5.63;;;5.53;;
13605;SDS011;6874;52.084;5.090;2023-04-15T07:10:33;5.60;;;5.50;;
13605;SDS011;6874;52.084;5.090;2023-04-15T07:12:58;5.90;;;5.70;;
13605;SDS011;6874;52.084;5.090;2023-04-15T07:15:25;5.30;;;5.20;;
13605;SDS011;6874;52.084;5.090;2023-04-15T07:17:50;5.20;;;5.10;;
13605;SDS011;6874;52.084;5.090;2023-04-15T07:20:16;5.50;;;5.40;;
13605;SDS011;6874;52.084;5.090;2023-04-15T07:22:41;6.50;;;6.30;;
13605;SDS011;6874;52.084;5.090;2023-04-15T07:25:07;7.27;;;7.07;;
13605;SDS011;6874;52.084;5.090;2023-04-15T07:27:33;8.33;;;8.13;;
13605;SDS011;6874;52.084;5.090;2023-04-15T07:29:58;9.40;;;9.10;;
13605;SDS011;6874;52.084;5.090;2023-04-15T07:32:24;10.07;;;9.77;;
13605;SDS011;6874;52.084;5.090;2023-04-15T07:34:50;10.50;;;10.20;;
13605;SDS011;6874;52.084;5.090;2023-04-15T07:37:15;10.93;;;10.63;;
13605;SDS011;6874;52.084;5.090;2023-04-15T07:39:41;11.00;;;10.70;;
13605;SDS011;6874;52.084;5.090;2023-04-15T07:42:07;11.10;;;10.80;;
13605;SDS011;6874;52.084;5.090;2023-04-15T07:44:33;11.03;;;10.73;;
13605;SDS011;6874;52.084;5.090;2023-04-15T07:46:58;11.27;;;10.97;;
13605;SDS011;6874;52.084;5.090;2023-04-15T07:49:26;11.57;;;11.27;;
13605;SDS011;6874;52.084;5.090;2023-04-15T07:51:52;6.47;;;6.27;;
13605;SDS011;6874;52.084;5.090;2023-04-15T07:54:17;6.27;;;6.07;;
13605;SDS011;6874;52.084;5.090;2023-04-15T07:56:43;6.20;;;6.00;;
13605;SDS011;6874;52.084;5.090;2023-04-15T07:59:08;5.80;;;5.60;;
13605;SDS011;6874;52.084;5.090;2023-04-15T08:01:34;6.30;;;6.10;;
13605;SDS011;6874;52.084;5.090;2023-04-15T08:04:00;5.97;;;5.77;;
13605;SDS011;6874;52.084;5.090;2023-04-15T08:06:27;6.03;;;5.83;;
13605;SDS011;6874;52.084;5.090;2023-04-15T08:08:53;5.40;;;5.30;;
13605;SDS011;6874;52.084;5.090;2023-04-15T08:11:19;5.90;;;5.70;;
13605;SDS011;6874;52.084;5.090;2023-04-15T08:13:45;5.33;;;5.23;;
13605;SDS011;6874;52.084;5.090;2023-04-15T08:16:21;6.00;;;5.80;;
13605;SDS011;6874;52.084;5.090;2023-04-15T08:18:49;5.40;;;5.30;;
13605;SDS011;6874;52.084;5.090;2023-04-15T08:21:16;5.27;;;5.17;;
13605;SDS011;6874;52.084;5.090;2023-04-15T08:23:43;6.03;;;5.83;;
13605;SDS011;6874;52.084;5.090;2023-04-15T08:26:09;6.77;;;6.57;;
13605;SDS011;6874;52.084;5.090;2023-04-15T08:28:37;5.73;;;5.53;;
13605;SDS011;6874;52.084;5.090;2023-04-15T08:31:03;6.57;;;6.37;;
13605;SDS011;6874;52.084;5.090;2023-04-15T08:33:29;6.27;;;6.07;;
13605;SDS011;6874;52.084;5.090;2023-04-15T08:35:55;6.13;;;5.93;;
13605;SDS011;6874;52.084;5.090;2023-04-15T08:38:21;6.80;;;6.60;;
13605;SDS011;6874;52.084;5.090;2023-04-15T08:40:47;6.47;;;6.27;;
13605;SDS011;6874;52.084;5.090;2023-04-15T08:43:21;6.93;;;6.73;;
13605;SDS011;6874;52.084;5.090;2023-04-15T08:45:52;7.10;;;6.90;;
13605;SDS011;6874;52.084;5.090;2023-04-15T08:48:19;7.03;;;6.83;;
13605;SDS011;6874;52.084;5.090;2023-04-15T08:50:45;7.57;;;7.37;;
13605;SDS011;6874;52.084;5.090;2023-04-15T08:53:12;7.70;;;7.50;;
13605;SDS011;6874;52.084;5.090;2023-04-15T08:55:41;7.63;;;7.43;;
13605;SDS011;6874;52.084;5.090;2023-04-15T08:58:11;7.90;;;7.70;;
13605;SDS011;6874;52.084;5.090;2023-04-15T09:00:38;7.53;;;7.33;;
13605;SDS011;6874;52.084;5.090;2023-04-15T09:03:04;8.53;;;8.33;;
13605;SDS011;6874;52.084;5.090;2023-04-15T09:05:31;8.33;;;8.13;;
13605;SDS011;6874;52.084;5.090;2023-04-15T09:07:58;9.47;;;9.17;;
13605;SDS011;6874;52.084;5.090;2023-04-15T09:10:24;7.90;;;7.70;;
13605;SDS011;6874;52.084;5.090;2023-04-15T09:12:49;9.03;;;8.73;;
13605;SDS011;6874;52.084;5.090;2023-04-15T09:15:15;9.10;;;8.80;;
13605;SDS011;6874;52.084;5.090;2023-04-15T09:17:42;8.97;;;8.67;;
13605;SDS011;6874;52.084;5.090;2023-04-15T09:20:09;8.90;;;8.63;;
13605;SDS011;6874;52.084;5.090;2023-04-15T09:22:36;9.13;;;8.83;;
13605;SDS011;6874;52.084;5.090;2023-04-15T09:25:03;8.97;;;8.70;;
13605;SDS011;6874;52.084;5.090;2023-04-15T09:27:51;10.03;;;9.73;;
13605;SDS011;6874;52.084;5.090;2023-04-15T09:30:17;9.77;;;9.47;;
13605;SDS011;6874;52.084;5.090;2023-04-15T09:33:02;10.03;;;9.73;;
13605;SDS011;6874;52.084;5.090;2023-04-15T09:35:32;10.70;;;10.40;;
13605;SDS011;6874;52.084;5.090;2023-04-15T09:38:03;11.43;;;11.13;;
13605;SDS011;6874;52.084;5.090;2023-04-15T09:40:37;11.40;;;11.10;;
13605;SDS011;6874;52.084;5.090;2023-04-15T09:43:05;14.17;;;13.77;;
13605;SDS011;6874;52.084;5.090;2023-04-15T09:45:32;15.63;;;15.13;;
13605;SDS011;6874;52.084;5.090;2023-04-15T09:48:13;15.63;;;15.13;;
13605;SDS011;6874;52.084;5.090;2023-04-15T09:50:41;16.63;;;16.13;;
13605;SDS011;6874;52.084;5.090;2023-04-15T09:53:08;17.93;;;17.40;;
13605;SDS011;6874;52.084;5.090;2023-04-15T09:55:36;18.07;;;17.53;;
13605;SDS011;6874;52.084;5.090;2023-04-15T09:58:02;15.87;;;15.37;;
13605;SDS011;6874;52.084;5.090;2023-04-15T10:00:34;15.13;;;14.67;;
13605;SDS011;6874;52.084;5.090;2023-04-15T10:03:01;14.77;;;14.30;;
13605;SDS011;6874;52.084;5.090;2023-04-15T10:05:29;18.50;;;17.90;;
13605;SDS011;6874;52.084;5.090;2023-04-15T10:07:55;15.63;;;15.13;;
13605;SDS011;6874;52.084;5.090;2023-04-15T10:10:21;15.67;;;15.17;;
13605;SDS011;6874;52.084;5.090;2023-04-15T10:12:47;16.17;;;15.67;;
13605;SDS011;6874;52.084;5.090;2023-04-15T10:15:16;15.60;;;15.10;;
13605;SDS011;6874;52.084;5.090;2023-04-15T10:17:43;18.50;;;17.90;;
13605;SDS011;6874;52.084;5.090;2023-04-15T10:20:09;18.93;;;18.33;;
13605;SDS011;6874;52.084;5.090;2023-04-15T10:22:37;20.13;;;19.50;;
13605;SDS011;6874;52.084;5.090;2023-04-15T10:25:02;18.53;;;17.93;;
13605;SDS011;6874;52.084;5.090;2023-04-15T10:27:30;13.93;;;13.53;;
13605;SDS011;6874;52.084;5.090;2023-04-15T10:29:56;14.37;;;13.93;;
13605;SDS011;6874;52.084;5.090;2023-04-15T10:32:24;21.87;;;21.20;;
13605;SDS011;6874;52.084;5.090;2023-04-15T10:34:50;33.33;;;32.27;;
13605;SDS011;6874;52.084;5.090;2023-04-15T10:37:36;35.50;;;34.40;;
13605;SDS011;6874;52.084;5.090;2023-04-15T10:42:47;40.03;;;38.73;;
13605;SDS011;6874;52.084;5.090;2023-04-15T10:45:15;39.33;;;38.03;;
13605;SDS011;6874;52.084;5.090;2023-04-15T10:47:42;41.70;;;40.33;;
13605;SDS011;6874;52.084;5.090;2023-04-15T10:50:08;38.63;;;37.40;;
13605;SDS011;6874;52.084;5.090;2023-04-15T10:52:33;40.60;;;39.27;;
13605;SDS011;6874;52.084;5.090;2023-04-15T10:57:34;46.03;;;44.53;;
13605;SDS011;6874;52.084;5.090;2023-04-15T11:00:13;51.90;;;50.23;;
13605;SDS011;6874;52.084;5.090;2023-04-15T11:08:06;35.03;;;33.90;;
13605;SDS011;6874;52.084;5.090;2023-04-15T11:13:02;46.70;;;45.13;;
13605;SDS011;6874;52.084;5.090;2023-04-15T11:15:36;49.40;;;47.73;;
13605;SDS011;6874;52.084;5.090;2023-04-15T11:18:14;53.67;;;51.90;;
13605;SDS011;6874;52.084;5.090;2023-04-15T11:20:41;60.37;;;58.33;;
13605;SDS011;6874;52.084;5.090;2023-04-15T11:23:14;62.47;;;60.33;;
13605;SDS011;6874;52.084;5.090;2023-04-15T11:25:42;67.30;;;65.03;;
13605;SDS011;6874;52.084;5.090;2023-04-15T11:28:08;70.10;;;67.70;;
13605;SDS011;6874;52.084;5.090;2023-04-15T11:30:35;61.47;;;59.43;;
13605;SDS011;6874;52.084;5.090;2023-04-15T11:33:03;49.40;;;47.77;;
13605;SDS011;6874;52.084;5.090;2023-04-15T11:35:30;34.70;;;33.60;;
13605;SDS011;6874;52.084;5.090;2023-04-15T11:37:58;23.97;;;23.20;;
13605;SDS011;6874;52.084;5.090;2023-04-15T11:40:32;18.13;;;17.57;;
13605;SDS011;6874;52.084;5.090;2023-04-15T11:43:03;19.70;;;19.10;;
13605;SDS011;6874;52.084;5.090;2023-04-15T11:45:55;16.67;;;16.17;;
13605;SDS011;6874;52.084;5.090;2023-04-15T11:48:23;18.33;;;17.73;;
13605;SDS011;6874;52.084;5.090;2023-04-15T11:50:53;17.57;;;17.03;;
13605;SDS011;6874;52.084;5.090;2023-04-15T11:53:22;16.67;;;16.17;;
13605;SDS011;6874;52.084;5.090;2023-04-15T11:55:49;20.10;;;19.47;;
13605;SDS011;6874;52.084;5.090;2023-04-15T11:58:20;28.03;;;27.13;;
13605;SDS011;6874;52.084;5.090;2023-04-15T12:03:28;35.30;;;34.13;;
13605;SDS011;6874;52.084;5.090;2023-04-15T12:06:05;32.40;;;31.33;;
13605;SDS011;6874;52.084;5.090;2023-04-15T12:11:12;27.43;;;26.53;;
13605;SDS011;6874;52.084;5.090;2023-04-15T12:13:42;26.77;;;25.87;;
13605;SDS011;6874;52.084;5.090;2023-04-15T12:16:12;25.70;;;24.90;;
13605;SDS011;6874;52.084;5.090;2023-04-15T12:18:40;24.57;;;23.77;;
13605;SDS011;6874;52.084;5.090;2023-04-15T12:21:09;23.27;;;22.57;;
13605;SDS011;6874;52.084;5.090;2023-04-15T12:23:36;23.63;;;22.87;;
13605;SDS011;6874;52.084;5.090;2023-04-15T12:26:05;24.47;;;23.67;;
13605;SDS011;6874;52.084;5.090;2023-04-15T12:28:32;27.57;;;26.67;;
13605;SDS011;6874;52.084;5.090;2023-04-15T12:31:05;30.60;;;29.60;;
13605;SDS011;6874;52.084;5.090;2023-04-15T12:33:32;31.70;;;30.70;;
13605;SDS011;6874;52.084;5.090;2023-04-15T12:35:59;31.30;;;30.30;;
13605;SDS011;6874;52.084;5.090;2023-04-15T12:38:24;32.20;;;31.10;;
13605;SDS011;6874;52.084;5.090;2023-04-15T12:40:50;27.13;;;26.23;;
13605;SDS011;6874;52.084;5.090;2023-04-15T12:43:15;28.23;;;27.33;;
13605;SDS011;6874;52.084;5.090;2023-04-15T12:45:41;28.93;;;28.00;;
13605;SDS011;6874;52.084;5.090;2023-04-15T12:48:07;36.67;;;35.47;;
13605;SDS011;6874;52.084;5.090;2023-04-15T12:50:33;43.60;;;42.20;;
13605;SDS011;6874;52.084;5.090;2023-04-15T12:52:59;44.97;;;43.50;;
13605;SDS011;6874;52.084;5.090;2023-04-15T12:55:25;41.37;;;40.00;;
13605;SDS011;6874;52.084;5.090;2023-04-15T12:57:51;39.17;;;37.87;;
13605;SDS011;6874;52.084;5.090;2023-04-15T13:00:16;35.60;;;34.40;;
13605;SDS011;6874;52.084;5.090;2023-04-15T13:02:42;36.03;;;34.80;;
13605;SDS011;6874;52.084;5.090;2023-04-15T13:05:08;36.60;;;35.37;;
13605;SDS011;6874;52.084;5.090;2023-04-15T13:07:34;31.73;;;30.67;;
13605;SDS011;6874;52.084;5.090;2023-04-15T13:09:59;32.57;;;31.50;;
13605;SDS011;6874;52.084;5.090;2023-04-15T13:12:25;34.63;;;33.50;;
13605;SDS011;6874;52.084;5.090;2023-04-15T13:14:51;35.57;;;34.37;;
13605;SDS011;6874;52.084;5.090;2023-04-15T13:17:17;34.67;;;33.53;;
13605;SDS011;6874;52.084;5.090;2023-04-15T13:19:44;39.77;;;38.47;;
13605;SDS011;6874;52.084;5.090;2023-04-15T13:22:10;39.30;;;38.00;;
13605;SDS011;6874;52.084;5.090;2023-04-15T13:24:36;41.03;;;39.67;;
13605;SDS011;6874;52.084;5.090;2023-04-15T13:27:03;42.37;;;40.93;;
13605;SDS011;6874;52.084;5.090;2023-04-15T13:29:29;41.43;;;40.07;;
13605;SDS011;6874;52.084;5.090;2023-04-15T13:31:54;41.87;;;40.47;;
13605;SDS011;6874;52.084;5.090;2023-04-15T13:34:20;41.43;;;40.07;;
13605;SDS011;6874;52.084;5.090;2023-04-15T13:36:46;39.17;;;37.87;;
13605;SDS011;6874;52.084;5.090;2023-04-15T13:39:12;39.90;;;38.60;;
13605;SDS011;6874;52.084;5.090;2023-04-15T13:41:38;32.53;;;31.53;;
13605;SDS011;6874;52.084;5.090;2023-04-15T13:44:04;25.27;;;24.47;;
13605;SDS011;6874;52.084;5.090;2023-04-15T13:46:30;20.83;;;20.20;;
13605;SDS011;6874;52.084;5.090;2023-04-15T13:48:55;20.67;;;20.07;;
13605;SDS011;6874;52.084;5.090;2023-04-15T13:51:21;20.70;;;20.07;;
13605;SDS011;6874;52.084;5.090;2023-04-15T13:53:46;23.50;;;22.80;;
13605;SDS011;6874;52.084;5.090;2023-04-15T13:56:12;22.77;;;22.07;;
13605;SDS011;6874;52.084;5.090;2023-04-15T13:58:39;21.73;;;21.03;;
13605;SDS011;6874;52.084;5.090;2023-04-15T14:01:05;23.87;;;23.13;;
13605;SDS011;6874;52.084;5.090;2023-04-15T14:03:31;24.57;;;23.77;;
13605;SDS011;6874;52.084;5.090;2023-04-15T14:05:56;28.90;;;28.00;;
13605;SDS011;6874;52.084;5.090;2023-04-15T14:08:23;28.93;;;28.03;;
13605;SDS011;6874;52.084;5.090;2023-04-15T14:10:49;27.13;;;26.27;;
13605;SDS011;6874;52.084;5.090;2023-04-15T14:13:15;31.03;;;30.03;;
13605;SDS011;6874;52.084;5.090;2023-04-15T14:15:40;29.17;;;28.27;;
13605;SDS011;6874;52.084;5.090;2023-04-15T14:18:06;28.40;;;27.50;;
13605;SDS011;6874;52.084;5.090;2023-04-15T14:20:32;28.03;;;27.13;;
13605;SDS011;6874;52.084;5.090;2023-04-15T14:22:57;28.67;;;27.77;;
13605;SDS011;6874;52.084;5.090;2023-04-15T14:25:23;24.90;;;24.10;;
13605;SDS011;6874;52.084;5.090;2023-04-15T14:27:51;23.30;;;22.60;;
13605;SDS011;6874;52.084;5.090;2023-04-15T14:30:16;24.50;;;23.70;;
13605;SDS011;6874;52.084;5.090;2023-04-15T14:32:42;23.43;;;22.73;;
13605;SDS011;6874;52.084;5.090;2023-04-15T14:35:07;22.63;;;21.93;;
13605;SDS011;6874;52.084;5.090;2023-04-15T14:37:33;28.07;;;27.17;;
13605;SDS011;6874;52.084;5.090;2023-04-15T14:39:58;31.70;;;30.70;;
13605;SDS011;6874;52.084;5.090;2023-04-15T14:42:24;34.47;;;33.37;;
13605;SDS011;6874;52.084;5.090;2023-04-15T14:44:49;34.87;;;33.77;;
13605;SDS011;6874;52.084;5.090;2023-04-15T14:47:15;39.23;;;37.97;;
13605;SDS011;6874;52.084;5.090;2023-04-15T14:49:41;46.90;;;45.37;;
13605;SDS011;6874;52.084;5.090;2023-04-15T14:52:06;51.97;;;50.30;;
13605;SDS011;6874;52.084;5.090;2023-04-15T14:54:32;50.27;;;48.63;;
13605;SDS011;6874;52.084;5.090;2023-04-15T14:56:58;53.63;;;51.87;;
13605;SDS011;6874;52.084;5.090;2023-04-15T14:59:23;49.77;;;48.13;;